sensor_id;sensor_type;location;lat;lon;timestamp;temperature;humidity
64689;DHT22;62504;46.070;14.492;2023-11-22T00:00:55;8.10;99.90
64689;DHT22;62504;46.070;14.492;2023-11-22T00:03:21;8.10;99.90
64689;DHT22;62504;46.070;14.492;2023-11-22T00:05:46;8.10;99.90
64689;DHT22;62504;46.070;14.492;2023-11-22T00:08:13;8.00;99.90
64689;DHT22;62504;46.070;14.492;2023-11-22T00:10:38;8.10;99.90
64689;DHT22;62504;46.070;14.492;2023-11-22T00:13:04;8.10;99.90
64689;DHT22;62504;46.070;14.492;2023-11-22T00:15:30;8.10;99.90
64689;DHT22;62504;46.070;14.492;2023-11-22T00:17:56;8.10;99.90
64689;DHT22;62504;46.070;14.492;2023-11-22T00:20:23;8.00;99.90
64689;DHT22;62504;46.070;14.492;2023-11-22T00:22:49;8.00;99.90
64689;DHT22;62504;46.070;14.492;2023-11-22T00:25:15;8.00;99.90
64689;DHT22;62504;46.070;14.492;2023-11-22T00:27:41;8.00;99.90
64689;DHT22;62504;46.070;14.492;2023-11-22T00:30:07;8.00;99.90
64689;DHT22;62504;46.070;14.492;2023-11-22T00:32:33;8.00;99.90
64689;DHT22;62504;46.070;14.492;2023-11-22T00:34:59;8.00;99.90
64689;DHT22;62504;46.070;14.492;2023-11-22T00:37:24;8.00;99.90
64689;DHT22;62504;46.070;14.492;2023-11-22T00:39:50;8.00;99.90
64689;DHT22;62504;46.070;14.492;2023-11-22T00:42:16;8.00;99.90
64689;DHT22;62504;46.070;14.492;2023-11-22T00:44:45;8.00;99.90
64689;DHT22;62504;46.070;14.492;2023-11-22T00:47:11;7.90;99.90
64689;DHT22;62504;46.070;14.492;2023-11-22T00:49:37;7.90;99.90
64689;DHT22;62504;46.070;14.492;2023-11-22T00:52:03;7.90;99.90
64689;DHT22;62504;46.070;14.492;2023-11-22T00:54:28;7.90;99.90
64689;DHT22;62504;46.070;14.492;2023-11-22T00:56:55;7.80;99.90
64689;DHT22;62504;46.070;14.492;2023-11-22T00:59:20;7.80;99.90
64689;DHT22;62504;46.070;14.492;2023-11-22T01:01:46;7.70;99.90
64689;DHT22;62504;46.070;14.492;2023-11-22T01:04:11;7.70;99.90
64689;DHT22;62504;46.070;14.492;2023-11-22T01:06:37;7.70;99.90
64689;DHT22;62504;46.070;14.492;2023-11-22T01:09:03;7.70;99.90
64689;DHT22;62504;46.070;14.492;2023-11-22T01:11:29;7.70;99.90
64689;DHT22;62504;46.070;14.492;2023-11-22T01:13:55;7.70;99.90
64689;DHT22;62504;46.070;14.492;2023-11-22T01:16:20;7.70;99.90
64689;DHT22;62504;46.070;14.492;2023-11-22T01:18:46;7.60;99.90
64689;DHT22;62504;46.070;14.492;2023-11-22T01:21:12;7.60;99.90
64689;DHT22;62504;46.070;14.492;2023-11-22T01:23:38;7.60;99.90
64689;DHT22;62504;46.070;14.492;2023-11-22T01:26:04;7.50;99.90
64689;DHT22;62504;46.070;14.492;2023-11-22T01:28:31;7.60;99.90
64689;DHT22;62504;46.070;14.492;2023-11-22T01:31:02;7.60;99.90
64689;DHT22;62504;46.070;14.492;2023-11-22T01:33:29;7.60;99.90
64689;DHT22;62504;46.070;14.492;2023-11-22T01:35:54;7.60;99.90
64689;DHT22;62504;46.070;14.492;2023-11-22T01:38:20;7.50;99.90
64689;DHT22;62504;46.070;14.492;2023-11-22T01:40:47;7.50;99.90
64689;DHT22;62504;46.070;14.492;2023-11-22T01:43:14;7.50;99.90
64689;DHT22;62504;46.070;14.492;2023-11-22T01:45:40;7.50;99.90
64689;DHT22;62504;46.070;14.492;2023-11-22T01:48:06;7.50;99.90
64689;DHT22;62504;46.070;14.492;2023-11-22T01:50:32;7.50;99.90
64689;DHT22;62504;46.070;14.492;2023-11-22T01:52:59;7.50;99.90
64689;DHT22;62504;46.070;14.492;2023-11-22T01:55:25;7.40;99.90
64689;DHT22;62504;46.070;14.492;2023-11-22T01:57:51;7.40;99.90
64689;DHT22;62504;46.070;14.492;2023-11-22T02:00:18;7.40;99.90
64689;DHT22;62504;46.070;14.492;2023-11-22T02:02:44;7.40;99.90
64689;DHT22;62504;46.070;14.492;2023-11-22T02:05:10;7.30;99.90
64689;DHT22;62504;46.070;14.492;2023-11-22T02:07:37;7.30;99.90
64689;DHT22;62504;46.070;14.492;2023-11-22T02:10:06;7.30;99.90
64689;DHT22;62504;46.070;14.492;2023-11-22T02:12:32;7.30;99.90
64689;DHT22;62504;46.070;14.492;2023-11-22T02:14:58;7.30;99.90
64689;DHT22;62504;46.070;14.492;2023-11-22T02:17:24;7.30;99.90
64689;DHT22;62504;46.070;14.492;2023-11-22T02:19:50;7.30;99.90
64689;DHT22;62504;46.070;14.492;2023-11-22T02:22:16;7.30;99.90
64689;DHT22;62504;46.070;14.492;2023-11-22T02:24:41;7.20;99.90
64689;DHT22;62504;46.070;14.492;2023-11-22T02:27:07;7.20;99.90
64689;DHT22;62504;46.070;14.492;2023-11-22T02:29:32;7.20;99.90
64689;DHT22;62504;46.070;14.492;2023-11-22T02:31:58;7.10;99.90
64689;DHT22;62504;46.070;14.492;2023-11-22T02:34:24;7.10;99.90
64689;DHT22;62504;46.070;14.492;2023-11-22T02:36:50;7.10;99.90
64689;DHT22;62504;46.070;14.492;2023-11-22T02:39:16;7.10;99.90
64689;DHT22;62504;46.070;14.492;2023-11-22T02:41:42;7.10;99.90
64689;DHT22;62504;46.070;14.492;2023-11-22T02:44:08;7.10;99.90
64689;DHT22;62504;46.070;14.492;2023-11-22T02:46:33;7.00;99.90
64689;DHT22;62504;46.070;14.492;2023-11-22T02:48:59;7.00;99.90
64689;DHT22;62504;46.070;14.492;2023-11-22T02:51:25;7.00;99.90
64689;DHT22;62504;46.070;14.492;2023-11-22T02:53:51;6.90;99.90
64689;DHT22;62504;46.070;14.492;2023-11-22T02:56:17;6.90;99.90
64689;DHT22;62504;46.070;14.492;2023-11-22T02:58:44;6.80;99.90
64689;DHT22;62504;46.070;14.492;2023-11-22T03:01:09;6.80;99.90
64689;DHT22;62504;46.070;14.492;2023-11-22T03:03:35;6.80;99.90
64689;DHT22;62504;46.070;14.492;2023-11-22T03:06:01;6.80;99.90
64689;DHT22;62504;46.070;14.492;2023-11-22T03:08:27;6.70;99.90
64689;DHT22;62504;46.070;14.492;2023-11-22T03:10:53;6.70;99.90
64689;DHT22;62504;46.070;14.492;2023-11-22T03:13:19;6.70;99.90
64689;DHT22;62504;46.070;14.492;2023-11-22T03:15:45;6.70;99.90
64689;DHT22;62504;46.070;14.492;2023-11-22T03:18:10;6.70;99.90
64689;DHT22;62504;46.070;14.492;2023-11-22T03:20:37;6.60;99.90
64689;DHT22;62504;46.070;14.492;2023-11-22T03:23:03;6.70;99.90
64689;DHT22;62504;46.070;14.492;2023-11-22T03:25:30;6.60;99.90
64689;DHT22;62504;46.070;14.492;2023-11-22T03:27:56;6.60;99.90
64689;DHT22;62504;46.070;14.492;2023-11-22T03:30:21;6.60;99.90
64689;DHT22;62504;46.070;14.492;2023-11-22T03:32:47;6.60;99.90
64689;DHT22;62504;46.070;14.492;2023-11-22T03:35:15;6.60;99.90
64689;DHT22;62504;46.070;14.492;2023-11-22T03:37:42;6.60;99.90
64689;DHT22;62504;46.070;14.492;2023-11-22T03:40:08;6.60;99.90
64689;DHT22;62504;46.070;14.492;2023-11-22T03:42:36;6.50;99.90
64689;DHT22;62504;46.070;14.492;2023-11-22T03:45:03;6.50;99.90
64689;DHT22;62504;46.070;14.492;2023-11-22T03:47:29;6.50;99.90
64689;DHT22;62504;46.070;14.492;2023-11-22T03:49:55;6.40;99.90
64689;DHT22;62504;46.070;14.492;2023-11-22T03:52:20;6.40;99.90
64689;DHT22;62504;46.070;14.492;2023-11-22T03:54:46;6.40;99.90
64689;DHT22;62504;46.070;14.492;2023-11-22T03:57:11;6.30;99.90
64689;DHT22;62504;46.070;14.492;2023-11-22T03:59:37;6.30;99.90
64689;DHT22;62504;46.070;14.492;2023-11-22T04:02:03;6.30;99.90
64689;DHT22;62504;46.070;14.492;2023-11-22T04:04:29;6.30;99.90
64689;DHT22;62504;46.070;14.492;2023-11-22T04:06:55;6.20;99.90
64689;DHT22;62504;46.070;14.492;2023-11-22T04:09:22;6.20;99.90
64689;DHT22;62504;46.070;14.492;2023-11-22T04:11:47;6.20;99.90
64689;DHT22;62504;46.070;14.492;2023-11-22T04:14:13;6.20;99.90
64689;DHT22;62504;46.070;14.492;2023-11-22T04:16:39;6.20;99.90
64689;DHT22;62504;46.070;14.492;2023-11-22T04:19:04;6.20;99.90
64689;DHT22;62504;46.070;14.492;2023-11-22T04:21:30;6.10;99.90
64689;DHT22;62504;46.070;14.492;2023-11-22T04:23:56;6.10;99.90
64689;DHT22;62504;46.070;14.492;2023-11-22T04:26:21;6.10;99.90
64689;DHT22;62504;46.070;14.492;2023-11-22T04:28:47;6.10;99.90
64689;DHT22;62504;46.070;14.492;2023-11-22T04:31:13;6.10;99.90
64689;DHT22;62504;46.070;14.492;2023-11-22T04:33:38;6.10;99.90
64689;DHT22;62504;46.070;14.492;2023-11-22T04:36:04;6.10;99.90
64689;DHT22;62504;46.070;14.492;2023-11-22T04:38:30;6.10;99.90
64689;DHT22;62504;46.070;14.492;2023-11-22T04:40:56;6.10;99.90
64689;DHT22;62504;46.070;14.492;2023-11-22T04:43:21;6.10;99.90
64689;DHT22;62504;46.070;14.492;2023-11-22T04:45:48;6.10;99.90
64689;DHT22;62504;46.070;14.492;2023-11-22T04:48:15;6.20;99.90
64689;DHT22;62504;46.070;14.492;2023-11-22T04:50:41;6.20;99.90
64689;DHT22;62504;46.070;14.492;2023-11-22T04:53:08;6.20;99.90
64689;DHT22;62504;46.070;14.492;2023-11-22T04:55:34;6.20;99.90
64689;DHT22;62504;46.070;14.492;2023-11-22T04:57:59;6.30;99.90
64689;DHT22;62504;46.070;14.492;2023-11-22T05:00:25;6.20;99.90
64689;DHT22;62504;46.070;14.492;2023-11-22T05:02:51;6.20;99.90
64689;DHT22;62504;46.070;14.492;2023-11-22T05:05:16;6.30;99.90
64689;DHT22;62504;46.070;14.492;2023-11-22T05:07:42;6.30;99.90
64689;DHT22;62504;46.070;14.492;2023-11-22T05:10:10;6.30;99.90
64689;DHT22;62504;46.070;14.492;2023-11-22T05:12:36;6.30;99.90
64689;DHT22;62504;46.070;14.492;2023-11-22T05:15:02;6.30;99.90
64689;DHT22;62504;46.070;14.492;2023-11-22T05:17:28;6.20;99.90
64689;DHT22;62504;46.070;14.492;2023-11-22T05:19:54;6.20;99.90
64689;DHT22;62504;46.070;14.492;2023-11-22T05:22:19;6.20;99.90
64689;DHT22;62504;46.070;14.492;2023-11-22T05:24:45;6.20;99.90
64689;DHT22;62504;46.070;14.492;2023-11-22T05:27:11;6.30;99.90
64689;DHT22;62504;46.070;14.492;2023-11-22T05:29:37;6.30;99.90
64689;DHT22;62504;46.070;14.492;2023-11-22T05:32:03;6.30;99.90
64689;DHT22;62504;46.070;14.492;2023-11-22T05:34:29;6.30;99.90
64689;DHT22;62504;46.070;14.492;2023-11-22T05:36:55;6.30;99.90
64689;DHT22;62504;46.070;14.492;2023-11-22T05:39:21;6.30;99.90
64689;DHT22;62504;46.070;14.492;2023-11-22T05:41:50;6.30;99.90
64689;DHT22;62504;46.070;14.492;2023-11-22T05:44:16;6.40;99.90
64689;DHT22;62504;46.070;14.492;2023-11-22T05:46:41;6.40;99.90
64689;DHT22;62504;46.070;14.492;2023-11-22T05:49:07;6.40;99.90
64689;DHT22;62504;46.070;14.492;2023-11-22T05:51:33;6.30;99.90
64689;DHT22;62504;46.070;14.492;2023-11-22T05:54:01;6.40;99.90
64689;DHT22;62504;46.070;14.492;2023-11-22T05:56:27;6.40;99.90
64689;DHT22;62504;46.070;14.492;2023-11-22T05:58:52;6.30;99.90
64689;DHT22;62504;46.070;14.492;2023-11-22T06:01:18;6.40;99.90
64689;DHT22;62504;46.070;14.492;2023-11-22T06:03:44;6.40;99.90
64689;DHT22;62504;46.070;14.492;2023-11-22T06:06:09;6.40;99.90
64689;DHT22;62504;46.070;14.492;2023-11-22T06:08:35;6.40;99.90
64689;DHT22;62504;46.070;14.492;2023-11-22T06:11:01;6.30;99.90
64689;DHT22;62504;46.070;14.492;2023-11-22T06:13:27;6.30;99.90
64689;DHT22;62504;46.070;14.492;2023-11-22T06:15:53;6.30;99.90
64689;DHT22;62504;46.070;14.492;2023-11-22T06:18:18;6.30;99.90
64689;DHT22;62504;46.070;14.492;2023-11-22T06:20:45;6.30;99.90
64689;DHT22;62504;46.070;14.492;2023-11-22T06:23:12;6.20;99.90
64689;DHT22;62504;46.070;14.492;2023-11-22T06:25:38;6.20;99.90
64689;DHT22;62504;46.070;14.492;2023-11-22T06:28:07;6.20;99.90
64689;DHT22;62504;46.070;14.492;2023-11-22T06:30:33;6.30;99.90
64689;DHT22;62504;46.070;14.492;2023-11-22T06:33:00;6.30;99.90
64689;DHT22;62504;46.070;14.492;2023-11-22T06:35:26;6.30;99.90
64689;DHT22;62504;46.070;14.492;2023-11-22T06:37:52;6.30;99.90
64689;DHT22;62504;46.070;14.492;2023-11-22T06:40:18;6.30;99.90
64689;DHT22;62504;46.070;14.492;2023-11-22T06:42:44;6.30;99.90
64689;DHT22;62504;46.070;14.492;2023-11-22T06:45:10;6.30;99.90
64689;DHT22;62504;46.070;14.492;2023-11-22T06:47:36;6.40;99.90
64689;DHT22;62504;46.070;14.492;2023-11-22T06:50:02;6.40;99.90
64689;DHT22;62504;46.070;14.492;2023-11-22T06:52:35;6.40;99.90
64689;DHT22;62504;46.070;14.492;2023-11-22T06:55:00;6.40;99.90
64689;DHT22;62504;46.070;14.492;2023-11-22T06:57:26;6.40;99.90
64689;DHT22;62504;46.070;14.492;2023-11-22T06:59:55;6.30;99.90
64689;DHT22;62504;46.070;14.492;2023-11-22T07:02:21;6.30;99.90
64689;DHT22;62504;46.070;14.492;2023-11-22T07:04:47;6.30;99.90
64689;DHT22;62504;46.070;14.492;2023-11-22T07:07:12;6.40;99.90
64689;DHT22;62504;46.070;14.492;2023-11-22T07:09:42;6.40;99.90
64689;DHT22;62504;46.070;14.492;2023-11-22T07:12:08;6.50;99.90
64689;DHT22;62504;46.070;14.492;2023-11-22T07:14:34;6.80;99.90
64689;DHT22;62504;46.070;14.492;2023-11-22T07:16:59;7.00;99.90
64689;DHT22;62504;46.070;14.492;2023-11-22T07:19:25;7.20;99.90
64689;DHT22;62504;46.070;14.492;2023-11-22T07:21:51;7.40;99.90
64689;DHT22;62504;46.070;14.492;2023-11-22T07:24:17;7.60;99.90
64689;DHT22;62504;46.070;14.492;2023-11-22T07:26:44;7.80;99.90
64689;DHT22;62504;46.070;14.492;2023-11-22T07:29:10;7.90;99.90
64689;DHT22;62504;46.070;14.492;2023-11-22T07:31:38;8.00;99.90
64689;DHT22;62504;46.070;14.492;2023-11-22T07:34:04;8.00;99.90
64689;DHT22;62504;46.070;14.492;2023-11-22T07:36:29;8.10;99.90
64689;DHT22;62504;46.070;14.492;2023-11-22T07:38:56;8.20;99.90
64689;DHT22;62504;46.070;14.492;2023-11-22T07:41:22;8.20;99.90
64689;DHT22;62504;46.070;14.492;2023-11-22T07:43:48;8.30;99.90
64689;DHT22;62504;46.070;14.492;2023-11-22T07:46:15;8.40;99.90
64689;DHT22;62504;46.070;14.492;2023-11-22T07:48:42;8.40;99.90
64689;DHT22;62504;46.070;14.492;2023-11-22T07:51:08;8.40;99.90
64689;DHT22;62504;46.070;14.492;2023-11-22T07:53:34;8.50;99.90
64689;DHT22;62504;46.070;14.492;2023-11-22T07:56:03;8.50;99.90
64689;DHT22;62504;46.070;14.492;2023-11-22T07:58:33;8.60;99.90
64689;DHT22;62504;46.070;14.492;2023-11-22T08:00:59;8.70;99.90
64689;DHT22;62504;46.070;14.492;2023-11-22T08:03:26;8.70;99.90
64689;DHT22;62504;46.070;14.492;2023-11-22T08:05:52;8.80;99.90
64689;DHT22;62504;46.070;14.492;2023-11-22T08:08:24;8.80;99.90
64689;DHT22;62504;46.070;14.492;2023-11-22T08:10:51;8.90;99.90
64689;DHT22;62504;46.070;14.492;2023-11-22T08:13:20;8.90;99.90
64689;DHT22;62504;46.070;14.492;2023-11-22T08:15:48;9.00;99.90
64689;DHT22;62504;46.070;14.492;2023-11-22T08:18:14;9.10;99.90
64689;DHT22;62504;46.070;14.492;2023-11-22T08:20:42;9.20;99.90
64689;DHT22;62504;46.070;14.492;2023-11-22T08:23:09;9.30;99.90
64689;DHT22;62504;46.070;14.492;2023-11-22T08:25:35;9.20;99.90
64689;DHT22;62504;46.070;14.492;2023-11-22T08:28:01;9.30;99.90
64689;DHT22;62504;46.070;14.492;2023-11-22T08:30:27;9.40;99.90
64689;DHT22;62504;46.070;14.492;2023-11-22T08:32:54;9.40;99.90
64689;DHT22;62504;46.070;14.492;2023-11-22T08:35:20;9.40;99.90
64689;DHT22;62504;46.070;14.492;2023-11-22T08:37:47;9.50;99.90
64689;DHT22;62504;46.070;14.492;2023-11-22T08:40:13;9.50;99.90
64689;DHT22;62504;46.070;14.492;2023-11-22T08:42:41;9.50;99.90
64689;DHT22;62504;46.070;14.492;2023-11-22T08:45:08;9.50;99.90
64689;DHT22;62504;46.070;14.492;2023-11-22T08:47:34;9.60;99.90
64689;DHT22;62504;46.070;14.492;2023-11-22T08:50:00;9.60;99.90
64689;DHT22;62504;46.070;14.492;2023-11-22T08:52:29;9.70;99.90
64689;DHT22;62504;46.070;14.492;2023-11-22T08:54:56;9.70;99.90
64689;DHT22;62504;46.070;14.492;2023-11-22T08:57:22;9.80;99.90
64689;DHT22;62504;46.070;14.492;2023-11-22T08:59:48;9.90;99.90
64689;DHT22;62504;46.070;14.492;2023-11-22T09:02:14;10.10;99.90
64689;DHT22;62504;46.070;14.492;2023-11-22T09:04:41;10.10;99.90
64689;DHT22;62504;46.070;14.492;2023-11-22T09:07:07;10.00;99.90
64689;DHT22;62504;46.070;14.492;2023-11-22T09:09:35;10.00;99.90
64689;DHT22;62504;46.070;14.492;2023-11-22T09:12:01;10.20;99.90
64689;DHT22;62504;46.070;14.492;2023-11-22T09:14:27;10.20;99.90
64689;DHT22;62504;46.070;14.492;2023-11-22T09:16:54;10.60;99.90
64689;DHT22;62504;46.070;14.492;2023-11-22T09:19:22;12.00;99.90
64689;DHT22;62504;46.070;14.492;2023-11-22T09:21:48;12.40;99.90
64689;DHT22;62504;46.070;14.492;2023-11-22T09:24:14;12.70;99.90
64689;DHT22;62504;46.070;14.492;2023-11-22T09:26:40;11.70;99.90
64689;DHT22;62504;46.070;14.492;2023-11-22T09:29:07;11.90;99.90
64689;DHT22;62504;46.070;14.492;2023-11-22T09:31:32;11.90;99.90
64689;DHT22;62504;46.070;14.492;2023-11-22T09:33:58;11.80;99.90
64689;DHT22;62504;46.070;14.492;2023-11-22T09:36:24;11.90;99.90
64689;DHT22;62504;46.070;14.492;2023-11-22T09:38:55;11.90;99.90
64689;DHT22;62504;46.070;14.492;2023-11-22T09:41:21;12.10;99.90
64689;DHT22;62504;46.070;14.492;2023-11-22T09:43:47;12.30;99.90
64689;DHT22;62504;46.070;14.492;2023-11-22T09:46:15;12.50;99.90
64689;DHT22;62504;46.070;14.492;2023-11-22T09:48:46;12.50;99.90
64689;DHT22;62504;46.070;14.492;2023-11-22T09:51:23;12.50;99.90
64689;DHT22;62504;46.070;14.492;2023-11-22T09:56:20;11.60;99.90
64689;DHT22;62504;46.070;14.492;2023-11-22T09:58:45;11.40;99.90
64689;DHT22;62504;46.070;14.492;2023-11-22T10:01:12;11.30;99.90
64689;DHT22;62504;46.070;14.492;2023-11-22T10:03:41;11.20;99.90
64689;DHT22;62504;46.070;14.492;2023-11-22T10:06:07;11.20;99.90
64689;DHT22;62504;46.070;14.492;2023-11-22T10:08:33;11.10;99.90
64689;DHT22;62504;46.070;14.492;2023-11-22T10:11:01;11.10;99.90
64689;DHT22;62504;46.070;14.492;2023-11-22T10:13:27;11.30;99.90
64689;DHT22;62504;46.070;14.492;2023-11-22T10:15:53;11.30;99.90
64689;DHT22;62504;46.070;14.492;2023-11-22T10:18:20;11.30;99.90
64689;DHT22;62504;46.070;14.492;2023-11-22T10:20:47;11.20;99.90
64689;DHT22;62504;46.070;14.492;2023-11-22T10:23:15;11.20;99.90
64689;DHT22;62504;46.070;14.492;2023-11-22T10:25:49;11.20;99.90
64689;DHT22;62504;46.070;14.492;2023-11-22T10:28:16;11.40;99.90
64689;DHT22;62504;46.070;14.492;2023-11-22T10:30:44;11.60;99.90
64689;DHT22;62504;46.070;14.492;2023-11-22T10:33:10;11.70;99.90
64689;DHT22;62504;46.070;14.492;2023-11-22T10:35:49;11.70;99.90
64689;DHT22;62504;46.070;14.492;2023-11-22T10:38:18;11.80;99.90
64689;DHT22;62504;46.070;14.492;2023-11-22T10:40:44;11.80;99.90
64689;DHT22;62504;46.070;14.492;2023-11-22T10:43:14;12.00;99.90
64689;DHT22;62504;46.070;14.492;2023-11-22T10:45:41;12.00;99.90
64689;DHT22;62504;46.070;14.492;2023-11-22T10:48:11;11.90;99.90
64689;DHT22;62504;46.070;14.492;2023-11-22T10:50:37;12.10;99.90
64689;DHT22;62504;46.070;14.492;2023-11-22T10:53:07;12.10;99.90
64689;DHT22;62504;46.070;14.492;2023-11-22T10:55:33;11.80;99.90
64689;DHT22;62504;46.070;14.492;2023-11-22T10:58:03;11.70;99.90
64689;DHT22;62504;46.070;14.492;2023-11-22T11:00:32;11.60;99.90
64689;DHT22;62504;46.070;14.492;2023-11-22T11:03:08;11.60;99.90
64689;DHT22;62504;46.070;14.492;2023-11-22T11:05:38;11.60;99.90
64689;DHT22;62504;46.070;14.492;2023-11-22T11:08:08;11.70;99.90
64689;DHT22;62504;46.070;14.492;2023-11-22T11:10:40;11.80;99.90
64689;DHT22;62504;46.070;14.492;2023-11-22T11:13:10;11.70;99.90
64689;DHT22;62504;46.070;14.492;2023-11-22T11:15:36;11.70;99.90
64689;DHT22;62504;46.070;14.492;2023-11-22T11:18:04;11.80;99.90
64689;DHT22;62504;46.070;14.492;2023-11-22T11:20:49;11.90;99.90
64689;DHT22;62504;46.070;14.492;2023-11-22T11:23:34;12.00;99.90
64689;DHT22;62504;46.070;14.492;2023-11-22T11:26:09;11.90;99.90
64689;DHT22;62504;46.070;14.492;2023-11-22T11:28:45;12.00;99.90
64689;DHT22;62504;46.070;14.492;2023-11-22T11:31:13;12.10;99.90
64689;DHT22;62504;46.070;14.492;2023-11-22T11:36:31;11.90;99.90
64689;DHT22;62504;46.070;14.492;2023-11-22T11:38:59;12.00;99.90
64689;DHT22;62504;46.070;14.492;2023-11-22T11:41:31;12.10;99.90
64689;DHT22;62504;46.070;14.492;2023-11-22T11:44:05;12.10;99.90
64689;DHT22;62504;46.070;14.492;2023-11-22T11:46:33;12.10;99.90
64689;DHT22;62504;46.070;14.492;2023-11-22T11:48:58;12.10;99.90
64689;DHT22;62504;46.070;14.492;2023-11-22T11:51:26;12.00;99.90
64689;DHT22;62504;46.070;14.492;2023-11-22T11:53:53;11.90;99.90
64689;DHT22;62504;46.070;14.492;2023-11-22T11:56:19;11.80;99.90
64689;DHT22;62504;46.070;14.492;2023-11-22T11:58:46;11.70;99.90
64689;DHT22;62504;46.070;14.492;2023-11-22T12:01:13;11.60;99.90
64689;DHT22;62504;46.070;14.492;2023-11-22T12:03:39;11.60;99.90
64689;DHT22;62504;46.070;14.492;2023-11-22T12:06:06;11.60;99.90
64689;DHT22;62504;46.070;14.492;2023-11-22T12:08:32;11.50;99.90
64689;DHT22;62504;46.070;14.492;2023-11-22T12:11:04;11.40;99.90
64689;DHT22;62504;46.070;14.492;2023-11-22T12:13:34;11.50;99.90
64689;DHT22;62504;46.070;14.492;2023-11-22T12:16:01;11.50;99.90
64689;DHT22;62504;46.070;14.492;2023-11-22T12:18:29;11.50;99.90
64689;DHT22;62504;46.070;14.492;2023-11-22T12:20:57;11.50;99.90
64689;DHT22;62504;46.070;14.492;2023-11-22T12:23:24;11.50;99.90
64689;DHT22;62504;46.070;14.492;2023-11-22T12:25:57;11.50;99.90
64689;DHT22;62504;46.070;14.492;2023-11-22T12:28:27;11.50;99.90
64689;DHT22;62504;46.070;14.492;2023-11-22T12:30:53;11.50;99.90
64689;DHT22;62504;46.070;14.492;2023-11-22T12:33:19;11.50;99.90
64689;DHT22;62504;46.070;14.492;2023-11-22T12:35:46;11.50;99.90
64689;DHT22;62504;46.070;14.492;2023-11-22T12:38:12;11.60;99.90
64689;DHT22;62504;46.070;14.492;2023-11-22T12:40:42;11.60;99.90
64689;DHT22;62504;46.070;14.492;2023-11-22T12:43:08;11.50;99.90
64689;DHT22;62504;46.070;14.492;2023-11-22T12:45:34;11.50;99.90
64689;DHT22;62504;46.070;14.492;2023-11-22T12:48:23;11.50;99.90
64689;DHT22;62504;46.070;14.492;2023-11-22T12:50:49;11.40;99.90
64689;DHT22;62504;46.070;14.492;2023-11-22T12:53:15;11.40;99.90
64689;DHT22;62504;46.070;14.492;2023-11-22T12:55:45;11.30;99.90
64689;DHT22;62504;46.070;14.492;2023-11-22T12:58:12;11.20;99.90
64689;DHT22;62504;46.070;14.492;2023-11-22T13:00:43;11.30;99.90
64689;DHT22;62504;46.070;14.492;2023-11-22T13:03:09;11.30;99.90
64689;DHT22;62504;46.070;14.492;2023-11-22T13:05:45;11.30;99.90
64689;DHT22;62504;46.070;14.492;2023-11-22T13:08:12;11.30;99.90
64689;DHT22;62504;46.070;14.492;2023-11-22T13:10:46;11.40;99.90
64689;DHT22;62504;46.070;14.492;2023-11-22T13:13:13;11.40;99.90
64689;DHT22;62504;46.070;14.492;2023-11-22T13:15:39;11.30;99.90
64689;DHT22;62504;46.070;14.492;2023-11-22T13:18:06;11.30;99.90
64689;DHT22;62504;46.070;14.492;2023-11-22T13:20:32;11.30;99.90
64689;DHT22;62504;46.070;14.492;2023-11-22T13:22:58;11.20;99.90
64689;DHT22;62504;46.070;14.492;2023-11-22T13:25:25;11.30;99.90
64689;DHT22;62504;46.070;14.492;2023-11-22T13:27:52;11.20;99.90
64689;DHT22;62504;46.070;14.492;2023-11-22T13:30:19;11.20;99.90
64689;DHT22;62504;46.070;14.492;2023-11-22T13:32:51;11.20;99.90
64689;DHT22;62504;46.070;14.492;2023-11-22T13:35:18;11.10;99.90
64689;DHT22;62504;46.070;14.492;2023-11-22T13:37:45;11.20;99.90
64689;DHT22;62504;46.070;14.492;2023-11-22T13:40:12;11.30;99.90
64689;DHT22;62504;46.070;14.492;2023-11-22T13:42:43;11.30;99.90
64689;DHT22;62504;46.070;14.492;2023-11-22T13:45:14;11.30;99.90
64689;DHT22;62504;46.070;14.492;2023-11-22T13:47:48;11.30;99.90
64689;DHT22;62504;46.070;14.492;2023-11-22T13:50:14;11.30;99.90
64689;DHT22;62504;46.070;14.492;2023-11-22T13:52:47;11.20;99.90
64689;DHT22;62504;46.070;14.492;2023-11-22T13:55:14;11.30;99.90
64689;DHT22;62504;46.070;14.492;2023-11-22T13:57:41;11.30;99.90
64689;DHT22;62504;46.070;14.492;2023-11-22T14:00:08;11.30;99.90
64689;DHT22;62504;46.070;14.492;2023-11-22T14:03:01;11.30;99.90
64689;DHT22;62504;46.070;14.492;2023-11-22T14:05:32;11.30;99.90
64689;DHT22;62504;46.070;14.492;2023-11-22T14:07:59;11.20;99.90
64689;DHT22;62504;46.070;14.492;2023-11-22T14:10:24;11.20;99.90
64689;DHT22;62504;46.070;14.492;2023-11-22T14:12:50;11.20;99.90
64689;DHT22;62504;46.070;14.492;2023-11-22T14:15:17;11.20;99.90
64689;DHT22;62504;46.070;14.492;2023-11-22T14:17:43;11.20;99.90
64689;DHT22;62504;46.070;14.492;2023-11-22T14:22:38;11.20;99.90
64689;DHT22;62504;46.070;14.492;2023-11-22T14:25:08;11.20;99.90
64689;DHT22;62504;46.070;14.492;2023-11-22T14:27:38;11.20;99.90
64689;DHT22;62504;46.070;14.492;2023-11-22T14:30:05;11.20;99.90
64689;DHT22;62504;46.070;14.492;2023-11-22T14:32:33;11.10;99.90
64689;DHT22;62504;46.070;14.492;2023-11-22T14:35:01;11.10;99.90
64689;DHT22;62504;46.070;14.492;2023-11-22T14:37:28;11.10;99.90
64689;DHT22;62504;46.070;14.492;2023-11-22T14:39:54;11.10;99.90
64689;DHT22;62504;46.070;14.492;2023-11-22T14:42:20;11.00;99.90
64689;DHT22;62504;46.070;14.492;2023-11-22T14:44:45;11.00;99.90
64689;DHT22;62504;46.070;14.492;2023-11-22T14:47:11;11.00;99.90
64689;DHT22;62504;46.070;14.492;2023-11-22T14:49:48;11.00;99.90
64689;DHT22;62504;46.070;14.492;2023-11-22T14:52:14;11.00;99.90
64689;DHT22;62504;46.070;14.492;2023-11-22T14:54:41;10.90;99.90
64689;DHT22;62504;46.070;14.492;2023-11-22T14:57:07;10.90;99.90
64689;DHT22;62504;46.070;14.492;2023-11-22T14:59:35;10.90;99.90
64689;DHT22;62504;46.070;14.492;2023-11-22T15:02:03;10.80;99.90
64689;DHT22;62504;46.070;14.492;2023-11-22T15:04:31;10.80;99.90
64689;DHT22;62504;46.070;14.492;2023-11-22T15:06:58;10.70;99.90
64689;DHT22;62504;46.070;14.492;2023-11-22T15:09:24;10.70;99.90
64689;DHT22;62504;46.070;14.492;2023-11-22T15:11:51;10.70;99.90
64689;DHT22;62504;46.070;14.492;2023-11-22T15:14:17;10.70;99.90
64689;DHT22;62504;46.070;14.492;2023-11-22T15:16:42;10.70;99.90
64689;DHT22;62504;46.070;14.492;2023-11-22T15:19:08;10.70;99.90
64689;DHT22;62504;46.070;14.492;2023-11-22T15:21:35;10.60;99.90
64689;DHT22;62504;46.070;14.492;2023-11-22T15:24:01;10.60;99.90
64689;DHT22;62504;46.070;14.492;2023-11-22T15:26:28;10.60;99.90
64689;DHT22;62504;46.070;14.492;2023-11-22T15:28:54;10.60;99.90
64689;DHT22;62504;46.070;14.492;2023-11-22T15:31:20;10.40;99.90